Sedona, AZ

7:38 PM MST on September 26, 2016 (GMT -0700)
Sedona | | Change Station

Elev 4826 ft 34.85 °N, 111.79 °W | Updated 23 minutes ago

Scattered Clouds
Scattered Clouds
73 °F
Feels Like 73 °F
N
9
Wind Variable Wind from NE

Today
High -- | Low -- °F
--% Chance of Precip.
Yesterday
High -- | Low -- °F
Precip. -- in
Pressure 30.18 in
Visibility 10.0 miles
Clouds Scattered Clouds 11000 ft
Dew Point 28 °F
Humidity 19%
Rainfall 0.00 in
Snow Depth Not available.
6:18 AM 6:17 PM
Waning Crescent, 14% visible
METAR KSEZ 270215Z AUTO 04008KT 10SM SCT110 23/M02 A3018 RMK AO2
Pressure 30.18 in
Visibility 10.0 miles
Clouds Scattered Clouds 11000 ft
Dew Point 28 °F
Humidity 19%
Rainfall 0.00 in
Snow Depth Not available.
6:18 AM 6:17 PM
Waning Crescent, 14% visible
METAR KSEZ 270215Z AUTO 04008KT 10SM SCT110 23/M02 A3018 RMK AO2

10-Day Weather Forecast

Almanac

Astronomy

Sep. 26, 2016 Rise Set
Actual Time
Civil Twilight
Nautical Twilight
Astronomical Twilight
Moon
Length of Visible Light
Length of Day
Tomorrow will be .
, % of the Moon is Illuminated

Today's Extremes

State Highs State Lows

Community

WunderPhotos

Upload Photos

1,942,022 photos uploaded!

WunderBlog® & News

Nearby

Air Quality

  Air Quality AQ Index Pollutant
Not available.

Snow Depth

Station Depth Elevation

Earthquake Activity

City Distance Mag. Time & Date
Minimum magnitude displayed is 2.5.

Coastal Water Temperatures

Place Temperature

Stations

Nearby Weather Stations

Station Location Temp. Windchill Dew Point Humidity Wind Precip. Elev Updated Type
                   

Watches & Warnings

There are currently no watches in effect.